createdAt,value
2023-02-19T00:01:31.276Z,24.58
2023-02-19T00:04:01.475Z,23.30
2023-02-19T00:06:30.011Z,22.08
2023-02-19T00:08:57.203Z,21.77
2023-02-19T00:11:26.880Z,23.48
2023-02-19T00:13:55.852Z,23.17
2023-02-19T00:16:27.455Z,23.98
2023-02-19T00:18:56.543Z,24.58
2023-02-19T00:21:23.440Z,21.92
2023-02-19T00:23:54.590Z,26.80
2023-02-19T00:26:21.984Z,23.67
2023-02-19T00:28:50.346Z,24.88
2023-02-19T00:31:25.299Z,24.83
2023-02-19T00:34:00.511Z,22.25
2023-02-19T00:36:28.941Z,20.90
2023-02-19T00:38:55.683Z,23.52
2023-02-19T00:41:24.399Z,23.00
2023-02-19T00:43:55.553Z,24.15
2023-02-19T00:46:25.069Z,24.58
2023-02-19T00:48:52.656Z,26.38
2023-02-19T00:51:21.086Z,23.75
2023-02-19T00:53:48.018Z,22.30
2023-02-19T00:56:14.840Z,25.15
2023-02-19T00:58:41.592Z,22.10
2023-02-19T01:01:09.213Z,26.50
2023-02-19T01:03:38.143Z,25.38
2023-02-19T01:06:06.735Z,24.73
2023-02-19T01:08:34.303Z,26.98
2023-02-19T01:11:02.700Z,25.80
2023-02-19T01:13:30.200Z,26.98
2023-02-19T01:16:08.972Z,25.85
2023-02-19T01:18:36.299Z,27.67
2023-02-19T01:21:08.173Z,26.85
2023-02-19T01:23:36.351Z,28.67
2023-02-19T01:26:14.437Z,27.33
2023-02-19T01:28:41.393Z,24.60
2023-02-19T01:31:13.148Z,22.95
2023-02-19T01:33:40.355Z,26.00
2023-02-19T01:36:07.819Z,27.48
2023-02-19T01:38:34.517Z,22.02
2023-02-19T01:41:04.106Z,27.20
2023-02-19T01:43:35.454Z,28.73
2023-02-19T01:46:02.234Z,24.10
2023-02-19T01:48:37.804Z,25.00
2023-02-19T01:51:13.319Z,23.48
2023-02-19T01:53:47.786Z,24.48
2023-02-19T01:56:16.553Z,27.60
2023-02-19T01:58:44.076Z,24.80
2023-02-19T02:01:11.868Z,26.67
2023-02-19T02:03:41.972Z,24.77
2023-02-19T02:06:22.253Z,27.75
2023-02-19T02:09:11.437Z,23.25
2023-02-19T02:11:42.597Z,25.25
2023-02-19T02:14:09.466Z,25.38
2023-02-19T02:16:54.710Z,24.75
2023-02-19T02:19:52.543Z,24.15
2023-02-19T02:22:25.629Z,22.17
2023-02-19T02:25:16.902Z,23.42
2023-02-19T02:27:57.897Z,28.20
2023-02-19T02:30:39.812Z,26.33
2023-02-19T02:33:15.967Z,24.58
2023-02-19T02:35:49.671Z,24.55
2023-02-19T02:38:20.490Z,24.30
2023-02-19T02:40:47.914Z,23.80
2023-02-19T02:43:15.216Z,23.15
2023-02-19T02:45:42.211Z,25.60
2023-02-19T02:48:24.181Z,24.40
2023-02-19T02:51:00.264Z,23.63
2023-02-19T02:54:07.883Z,22.55
2023-02-19T02:56:35.848Z,23.75
2023-02-19T02:59:05.281Z,25.25
2023-02-19T03:02:02.401Z,23.90
2023-02-19T03:05:01.308Z,24.13
2023-02-19T03:07:34.134Z,24.10
2023-02-19T03:10:03.279Z,26.38
2023-02-19T03:12:51.846Z,25.35
2023-02-19T03:15:38.479Z,21.95
2023-02-19T03:18:27.734Z,21.83
2023-02-19T03:20:58.003Z,23.65
2023-02-19T03:23:49.480Z,20.05
2023-02-19T03:26:19.246Z,26.13
2023-02-19T03:29:08.748Z,20.05
2023-02-19T03:31:38.178Z,27.63
2023-02-19T03:34:10.423Z,23.70
2023-02-19T03:36:56.521Z,27.08
2023-02-19T03:39:24.202Z,21.60
2023-02-19T03:42:00.127Z,27.95
2023-02-19T03:44:48.926Z,26.38
2023-02-19T03:47:18.654Z,23.88
2023-02-19T03:50:00.333Z,25.42
2023-02-19T03:53:06.356Z,22.85
2023-02-19T03:56:16.303Z,23.40
2023-02-19T03:58:47.527Z,20.95
2023-02-19T04:01:24.888Z,22.73
2023-02-19T04:04:00.997Z,20.90
2023-02-19T04:06:30.421Z,23.45
2023-02-19T04:09:00.372Z,21.98
2023-02-19T04:11:29.174Z,21.92
2023-02-19T04:14:07.194Z,24.27
2023-02-19T04:16:37.904Z,22.27
2023-02-19T04:19:11.488Z,20.83
2023-02-19T04:21:40.810Z,19.33
2023-02-19T04:24:13.901Z,21.85
2023-02-19T04:26:42.358Z,22.63
2023-02-19T04:29:09.120Z,24.60
2023-02-19T04:31:37.236Z,24.95
2023-02-19T04:34:04.324Z,21.20
2023-02-19T04:36:32.274Z,21.10
2023-02-19T04:38:59.656Z,25.63
2023-02-19T04:41:26.531Z,20.52
2023-02-19T04:43:53.395Z,20.98
2023-02-19T04:46:20.335Z,24.48
2023-02-19T04:48:47.065Z,18.83
2023-02-19T04:51:14.111Z,20.45
2023-02-19T04:53:40.890Z,24.02
2023-02-19T04:56:13.395Z,22.23
2023-02-19T04:58:41.502Z,23.73
2023-02-19T05:01:08.701Z,23.65
2023-02-19T05:03:35.783Z,21.45
2023-02-19T05:06:07.784Z,21.58
2023-02-19T05:08:35.823Z,24.40
2023-02-19T05:11:04.933Z,19.95
2023-02-19T05:13:32.247Z,20.17
2023-02-19T05:16:08.435Z,21.02
2023-02-19T05:18:35.715Z,23.80
2023-02-19T05:21:02.815Z,19.77
2023-02-19T05:23:29.602Z,22.77
2023-02-19T05:25:56.413Z,22.10
2023-02-19T05:28:29.052Z,20.75
2023-02-19T05:30:57.350Z,19.52
2023-02-19T05:33:26.279Z,19.50
2023-02-19T05:35:55.609Z,20.60
2023-02-19T05:38:23.036Z,19.05
2023-02-19T05:40:49.945Z,19.83
2023-02-19T05:43:17.112Z,21.27
2023-02-19T05:45:43.995Z,19.40
2023-02-19T05:48:11.674Z,18.15
2023-02-19T05:50:39.867Z,20.15
2023-02-19T05:53:06.870Z,20.83
2023-02-19T05:55:36.772Z,19.67
2023-02-19T05:58:03.740Z,18.98
2023-02-19T06:00:32.616Z,18.13
2023-02-19T06:02:59.481Z,19.52
2023-02-19T06:05:26.364Z,17.13
2023-02-19T06:07:53.180Z,19.02
2023-02-19T06:10:19.950Z,19.15
2023-02-19T06:12:46.688Z,19.42
2023-02-19T06:15:13.514Z,17.88
2023-02-19T06:17:40.203Z,19.77
2023-02-19T06:20:07.732Z,20.77
2023-02-19T06:22:34.475Z,20.10
2023-02-19T06:25:01.224Z,20.65
2023-02-19T06:27:30.248Z,21.08
2023-02-19T06:29:57.069Z,20.90
2023-02-19T06:32:23.918Z,18.63
2023-02-19T06:34:50.848Z,19.98
2023-02-19T06:37:17.547Z,20.65
2023-02-19T06:39:44.816Z,21.17
2023-02-19T06:42:11.726Z,19.95
2023-02-19T06:44:38.533Z,20.10
2023-02-19T06:47:05.324Z,19.63
2023-02-19T06:49:32.156Z,19.08
2023-02-19T06:52:00.524Z,21.60
2023-02-19T06:54:27.328Z,20.60
2023-02-19T06:56:54.125Z,22.55
2023-02-19T06:59:20.913Z,22.23
2023-02-19T07:01:47.683Z,18.35
2023-02-19T07:04:14.639Z,20.45
2023-02-19T07:06:41.804Z,20.58
2023-02-19T07:09:09.837Z,20.05
2023-02-19T07:11:39.153Z,19.98
2023-02-19T07:14:08.459Z,18.98
2023-02-19T07:16:36.292Z,20.58
2023-02-19T07:19:03.683Z,18.80
2023-02-19T07:21:30.819Z,17.67
2023-02-19T07:23:58.163Z,20.33
2023-02-19T07:26:25.720Z,19.60
2023-02-19T07:28:52.628Z,19.98
2023-02-19T07:31:21.007Z,21.30
2023-02-19T07:33:48.590Z,20.88
2023-02-19T07:36:17.442Z,20.77
2023-02-19T07:38:44.774Z,20.85
2023-02-19T07:41:12.273Z,19.85
2023-02-19T07:43:39.815Z,20.50
2023-02-19T07:46:09.487Z,22.15
2023-02-19T07:48:37.629Z,20.65
2023-02-19T07:51:06.645Z,22.85
2023-02-19T07:53:35.047Z,20.25
2023-02-19T07:56:05.387Z,21.45
2023-02-19T07:58:33.465Z,19.40
2023-02-19T08:01:11.983Z,19.95
2023-02-19T08:03:39.255Z,22.08
2023-02-19T08:06:06.960Z,22.30
2023-02-19T08:08:33.746Z,22.27
2023-02-19T08:11:20.101Z,19.80
2023-02-19T08:13:49.738Z,24.02
2023-02-19T08:16:29.600Z,20.58
2023-02-19T08:18:56.828Z,21.65
2023-02-19T08:21:24.479Z,16.95
2023-02-19T08:23:51.423Z,21.92
2023-02-19T08:26:18.622Z,19.13
2023-02-19T08:28:45.980Z,19.15
2023-02-19T08:31:13.288Z,22.73
2023-02-19T08:33:40.792Z,19.42
2023-02-19T08:36:09.454Z,22.10
2023-02-19T08:38:36.866Z,19.17
2023-02-19T08:41:07.122Z,19.85
2023-02-19T08:43:34.492Z,19.77
2023-02-19T08:46:01.369Z,21.63
2023-02-19T08:48:28.884Z,21.20
2023-02-19T08:51:03.885Z,21.58
2023-02-19T08:53:33.480Z,19.35
2023-02-19T08:56:09.377Z,21.85
2023-02-19T08:58:37.515Z,20.98
2023-02-19T09:01:11.779Z,19.20
2023-02-19T09:03:38.822Z,20.67
2023-02-19T09:06:05.853Z,22.10
2023-02-19T09:08:32.765Z,19.58
2023-02-19T09:11:04.628Z,17.60
2023-02-19T09:13:31.436Z,20.65
2023-02-19T09:15:58.487Z,20.10
2023-02-19T09:18:26.169Z,18.65
2023-02-19T09:20:53.043Z,21.17
2023-02-19T09:23:19.811Z,19.95
2023-02-19T09:25:46.788Z,23.42
2023-02-19T09:28:13.549Z,19.98
2023-02-19T09:30:40.357Z,20.42
2023-02-19T09:33:07.184Z,21.50
2023-02-19T09:35:33.923Z,22.95
2023-02-19T09:38:02.080Z,19.48
2023-02-19T09:40:30.510Z,22.17
2023-02-19T09:42:57.773Z,26.75
2023-02-19T09:45:26.904Z,22.17
2023-02-19T09:47:57.250Z,21.95
2023-02-19T09:50:34.247Z,22.08
2023-02-19T09:53:04.825Z,23.50
2023-02-19T09:55:36.296Z,24.48
2023-02-19T09:58:15.072Z,21.73
2023-02-19T10:00:41.941Z,23.35
2023-02-19T10:03:20.735Z,22.42
2023-02-19T10:05:48.018Z,20.30
2023-02-19T10:08:19.591Z,25.30
2023-02-19T10:10:46.431Z,22.35
2023-02-19T10:13:51.733Z,23.30
2023-02-19T10:16:26.869Z,22.10
2023-02-19T10:18:53.965Z,22.73
2023-02-19T10:21:23.997Z,22.05
2023-02-19T10:24:01.513Z,22.98
2023-02-19T10:26:28.702Z,21.00
2023-02-19T10:28:55.690Z,21.17
2023-02-19T10:31:25.208Z,23.70
2023-02-19T10:33:54.909Z,21.65
2023-02-19T10:36:37.850Z,23.80
2023-02-19T10:39:21.770Z,24.38
2023-02-19T10:41:50.939Z,21.20
2023-02-19T10:44:28.393Z,24.00
2023-02-19T10:46:59.494Z,21.75
2023-02-19T10:49:30.863Z,20.92
2023-02-19T10:52:02.693Z,21.85
2023-02-19T10:54:32.867Z,22.85
2023-02-19T10:57:15.155Z,24.50
2023-02-19T10:59:58.532Z,22.08
2023-02-19T11:02:26.234Z,24.23
2023-02-19T11:05:05.042Z,22.10
2023-02-19T11:07:32.417Z,24.17
2023-02-19T11:10:00.119Z,21.20
2023-02-19T11:12:35.728Z,21.33
2023-02-19T11:15:22.146Z,22.23
2023-02-19T11:18:21.542Z,22.60
2023-02-19T11:21:02.849Z,20.40
2023-02-19T11:23:34.512Z,24.20
2023-02-19T11:26:05.770Z,22.58
2023-02-19T11:28:37.107Z,21.17
2023-02-19T11:31:23.668Z,22.70
2023-02-19T11:34:29.295Z,21.75
2023-02-19T11:37:14.574Z,22.15
2023-02-19T11:39:47.700Z,21.98
2023-02-19T11:42:55.769Z,21.65
2023-02-19T11:45:34.582Z,23.48
2023-02-19T11:48:26.274Z,21.88
2023-02-19T11:50:55.829Z,21.63
2023-02-19T11:53:33.195Z,22.02
2023-02-19T11:56:17.003Z,22.63
2023-02-19T11:58:49.578Z,20.65
2023-02-19T12:01:25.977Z,20.92
2023-02-19T12:04:04.904Z,21.55
2023-02-19T12:06:55.091Z,20.75
2023-02-19T12:09:49.222Z,22.67
2023-02-19T12:12:37.975Z,20.75
2023-02-19T12:15:27.259Z,20.63
2023-02-19T12:18:06.608Z,22.42
2023-02-19T12:20:33.284Z,22.52
2023-02-19T12:23:02.821Z,20.88
2023-02-19T12:25:35.877Z,20.13
2023-02-19T12:28:24.612Z,21.67
2023-02-19T12:31:22.634Z,19.48
2023-02-19T12:34:01.415Z,19.02
2023-02-19T12:36:44.499Z,21.33
2023-02-19T12:39:49.449Z,21.17
2023-02-19T12:42:34.610Z,20.75
2023-02-19T12:45:10.481Z,21.92
2023-02-19T12:47:41.048Z,22.92
2023-02-19T12:50:29.046Z,21.23
2023-02-19T12:53:05.393Z,20.70
2023-02-19T12:55:44.979Z,20.73
2023-02-19T12:58:21.843Z,22.45
2023-02-19T13:00:53.843Z,20.70
2023-02-19T13:03:44.112Z,22.27
2023-02-19T13:06:17.122Z,22.17
2023-02-19T13:09:05.317Z,21.60
2023-02-19T13:12:02.494Z,20.75
2023-02-19T13:14:37.361Z,20.88
2023-02-19T13:17:31.624Z,23.77
2023-02-19T13:20:13.384Z,22.92
2023-02-19T13:23:12.416Z,23.58
2023-02-19T13:26:07.437Z,23.58
2023-02-19T13:28:36.972Z,25.10
2023-02-19T13:31:31.705Z,21.35
2023-02-19T13:34:36.078Z,22.25
2023-02-19T13:37:03.729Z,20.63
2023-02-19T13:39:31.539Z,22.27
2023-02-19T13:41:59.405Z,23.05
2023-02-19T13:44:29.575Z,24.27
2023-02-19T13:46:57.215Z,25.50
2023-02-19T13:49:31.612Z,23.35
2023-02-19T13:52:00.282Z,23.40
2023-02-19T13:54:37.131Z,22.38
2023-02-19T13:57:22.487Z,22.90
2023-02-19T13:59:53.923Z,21.67
2023-02-19T14:02:20.812Z,21.60
2023-02-19T14:04:51.889Z,22.10
2023-02-19T14:07:18.738Z,23.92
2023-02-19T14:09:46.493Z,22.55
2023-02-19T14:12:15.720Z,25.00
2023-02-19T14:14:47.059Z,25.02
2023-02-19T14:17:36.085Z,22.77
2023-02-19T14:20:16.818Z,26.48
2023-02-19T14:22:46.725Z,23.85
2023-02-19T14:25:34.101Z,24.63
2023-02-19T14:28:27.872Z,23.85
2023-02-19T14:30:58.340Z,25.75
2023-02-19T14:33:37.712Z,26.83
2023-02-19T14:36:34.429Z,22.90
2023-02-19T14:39:06.439Z,24.13
2023-02-19T14:41:38.859Z,24.90
2023-02-19T14:44:13.503Z,24.38
2023-02-19T14:46:51.592Z,24.38
2023-02-19T14:49:44.567Z,25.90
2023-02-19T14:52:22.123Z,24.77
2023-02-19T14:54:51.550Z,24.33
2023-02-19T14:57:23.392Z,26.33
2023-02-19T15:00:02.025Z,26.58
2023-02-19T15:04:59.244Z,30.02
2023-02-19T15:07:32.581Z,29.38
2023-02-19T15:10:05.024Z,27.23
2023-02-19T15:12:38.258Z,24.95
2023-02-19T15:15:06.107Z,28.55
2023-02-19T15:17:36.150Z,31.35
2023-02-19T15:20:11.596Z,27.70
2023-02-19T15:22:41.549Z,26.55
2023-02-19T15:25:14.922Z,27.27
2023-02-19T15:27:41.655Z,27.58
2023-02-19T15:30:18.818Z,27.60
2023-02-19T15:32:58.629Z,27.75
2023-02-19T15:35:27.799Z,24.35
2023-02-19T15:37:55.715Z,26.73
2023-02-19T15:40:30.958Z,27.17
2023-02-19T15:43:00.509Z,26.67
2023-02-19T15:45:48.290Z,27.92
2023-02-19T15:48:22.404Z,30.33
2023-02-19T15:50:59.608Z,26.80
2023-02-19T15:53:34.111Z,27.73
2023-02-19T15:56:06.458Z,24.75
2023-02-19T15:58:36.028Z,26.17
2023-02-19T16:01:27.627Z,24.60
2023-02-19T16:03:55.443Z,28.42
2023-02-19T16:06:24.749Z,24.42
2023-02-19T16:09:01.884Z,25.92
2023-02-19T16:11:47.733Z,24.75
2023-02-19T16:14:39.488Z,25.42
2023-02-19T16:17:16.670Z,21.67
2023-02-19T16:19:48.926Z,26.75
2023-02-19T16:22:21.705Z,26.38
2023-02-19T16:24:55.194Z,25.88
2023-02-19T16:27:32.083Z,26.40
2023-02-19T16:30:01.519Z,27.70
2023-02-19T16:32:29.108Z,25.55
2023-02-19T16:34:56.027Z,30.40
2023-02-19T16:37:41.088Z,28.05
2023-02-19T16:40:07.909Z,29.70
2023-02-19T16:42:58.217Z,26.60
2023-02-19T16:45:27.423Z,27.00
2023-02-19T16:47:54.335Z,26.88
2023-02-19T16:50:24.611Z,28.52
2023-02-19T16:52:55.375Z,29.70
2023-02-19T16:55:23.047Z,29.17
2023-02-19T16:57:50.575Z,28.90
2023-02-19T17:00:26.278Z,27.48
2023-02-19T17:02:57.286Z,27.08
2023-02-19T17:05:27.717Z,30.13
2023-02-19T17:07:54.742Z,29.90
2023-02-19T17:10:24.331Z,29.17
2023-02-19T17:12:55.447Z,29.02
2023-02-19T17:15:23.085Z,28.50
2023-02-19T17:17:50.151Z,26.77
2023-02-19T17:20:17.023Z,26.38
2023-02-19T17:22:44.529Z,23.70
2023-02-19T17:25:11.500Z,26.50
2023-02-19T17:27:38.328Z,28.48
2023-02-19T17:30:16.850Z,29.55
2023-02-19T17:32:43.658Z,28.80
2023-02-19T17:35:10.681Z,31.17
2023-02-19T17:37:37.597Z,31.95
2023-02-19T17:40:04.668Z,29.23
2023-02-19T17:42:31.606Z,29.77
2023-02-19T17:44:58.462Z,28.30
2023-02-19T17:47:25.532Z,29.33
2023-02-19T17:49:52.574Z,30.15
2023-02-19T17:52:19.636Z,28.10
2023-02-19T17:54:46.593Z,29.45
2023-02-19T17:57:13.504Z,28.20
2023-02-19T17:59:40.629Z,30.27
2023-02-19T18:02:08.351Z,29.65
2023-02-19T18:04:36.790Z,32.72
2023-02-19T18:07:04.335Z,29.40
2023-02-19T18:09:32.056Z,29.58
2023-02-19T18:11:59.734Z,30.48
2023-02-19T18:14:28.364Z,31.45
2023-02-19T18:16:56.081Z,33.13
2023-02-19T18:19:23.523Z,30.92
2023-02-19T18:21:51.170Z,30.52
2023-02-19T18:24:18.828Z,28.45
2023-02-19T18:26:45.979Z,30.08
2023-02-19T18:29:13.607Z,31.42
2023-02-19T18:31:40.865Z,29.38
2023-02-19T18:34:17.409Z,32.67
2023-02-19T18:36:49.137Z,31.52
2023-02-19T18:41:48.583Z,28.95
2023-02-19T18:44:23.270Z,29.23
2023-02-19T18:46:50.929Z,29.77
2023-02-19T18:49:18.399Z,31.08
2023-02-19T18:51:47.009Z,30.05
2023-02-19T18:54:14.160Z,30.00
2023-02-19T18:56:45.636Z,32.28
2023-02-19T18:59:13.606Z,29.67
2023-02-19T19:01:40.528Z,29.52
2023-02-19T19:04:07.631Z,28.55
2023-02-19T19:06:36.040Z,29.52
2023-02-19T19:09:04.407Z,29.17
2023-02-19T19:11:31.605Z,29.88
2023-02-19T19:13:58.422Z,27.17
2023-02-19T19:16:26.971Z,28.38
2023-02-19T19:18:54.338Z,27.42
2023-02-19T19:21:22.446Z,28.30
2023-02-19T19:23:50.269Z,31.42
2023-02-19T19:26:17.838Z,27.55
2023-02-19T19:28:45.292Z,28.55
2023-02-19T19:31:15.232Z,29.10
2023-02-19T19:33:44.091Z,29.95
2023-02-19T19:36:11.932Z,31.88
2023-02-19T19:38:39.456Z,32.05
2023-02-19T19:41:07.200Z,33.17
2023-02-19T19:43:34.475Z,34.35
2023-02-19T19:46:03.976Z,35.22
2023-02-19T19:48:33.249Z,33.35
2023-02-19T19:51:00.204Z,32.55
2023-02-19T19:53:27.563Z,34.45
2023-02-19T19:55:54.492Z,35.67
2023-02-19T19:58:24.929Z,31.58
2023-02-19T20:00:52.493Z,36.13
2023-02-19T20:03:20.701Z,33.95
2023-02-19T20:05:50.760Z,29.85
2023-02-19T20:08:18.495Z,31.88
2023-02-19T20:10:45.871Z,33.08
2023-02-19T20:13:17.693Z,36.35
2023-02-19T20:15:45.380Z,31.85
2023-02-19T20:18:12.844Z,31.08
2023-02-19T20:20:39.708Z,34.35
2023-02-19T20:23:06.663Z,30.42
2023-02-19T20:25:34.286Z,34.15
2023-02-19T20:28:01.456Z,68.35
2023-02-19T20:30:28.525Z,33.17
2023-02-19T20:32:55.656Z,30.35
2023-02-19T20:35:26.477Z,31.45
2023-02-19T20:37:54.623Z,33.33
2023-02-19T20:40:24.238Z,31.35
2023-02-19T20:42:51.092Z,31.80
2023-02-19T20:45:18.148Z,30.50
2023-02-19T20:47:45.206Z,36.42
2023-02-19T20:50:12.123Z,33.17
2023-02-19T20:52:39.058Z,30.88
2023-02-19T20:55:06.302Z,31.38
2023-02-19T20:57:33.072Z,31.48
2023-02-19T20:59:59.903Z,30.63
2023-02-19T21:02:29.394Z,31.42
2023-02-19T21:04:57.118Z,30.05
2023-02-19T21:07:26.742Z,28.50
2023-02-19T21:09:54.035Z,31.17
2023-02-19T21:12:22.386Z,28.90
2023-02-19T21:14:49.564Z,35.38
2023-02-19T21:17:16.441Z,38.00
2023-02-19T21:19:43.199Z,33.55
2023-02-19T21:22:09.983Z,30.80
2023-02-19T21:24:37.166Z,32.13
2023-02-19T21:27:04.201Z,34.30
2023-02-19T21:29:30.931Z,31.52
2023-02-19T21:31:58.783Z,29.30
2023-02-19T21:34:28.059Z,30.45
2023-02-19T21:36:56.037Z,32.03
2023-02-19T21:39:24.690Z,32.58
2023-02-19T21:41:51.744Z,32.47
2023-02-19T21:44:19.127Z,33.75
2023-02-19T21:46:45.911Z,37.75
2023-02-19T21:49:13.050Z,34.53
2023-02-19T21:51:41.830Z,35.13
2023-02-19T21:54:13.690Z,34.60
2023-02-19T21:56:40.419Z,32.75
2023-02-19T21:59:07.228Z,34.83
2023-02-19T22:01:38.877Z,36.80
2023-02-19T22:06:33.263Z,34.50
2023-02-19T22:09:00.750Z,34.25
2023-02-19T22:11:27.525Z,34.03
2023-02-19T22:13:54.608Z,32.90
2023-02-19T22:16:21.972Z,35.03
2023-02-19T22:18:50.770Z,34.75
2023-02-19T22:21:18.052Z,33.15
2023-02-19T22:23:46.517Z,37.97
2023-02-19T22:26:23.518Z,34.78
2023-02-19T22:28:50.832Z,36.47
2023-02-19T22:31:20.176Z,38.30
2023-02-19T22:33:47.017Z,34.05
2023-02-19T22:36:14.886Z,38.90
2023-02-19T22:38:41.747Z,35.35
2023-02-19T22:41:08.585Z,39.22
2023-02-19T22:43:35.579Z,34.35
2023-02-19T22:46:02.769Z,38.83
2023-02-19T22:48:31.399Z,38.30
2023-02-19T22:50:59.269Z,38.90
2023-02-19T22:53:26.080Z,41.03
2023-02-19T22:55:52.901Z,39.90
2023-02-19T22:58:19.673Z,40.17
2023-02-19T23:00:46.643Z,40.55
2023-02-19T23:03:13.471Z,39.75
2023-02-19T23:05:40.268Z,40.88
2023-02-19T23:08:07.026Z,41.35
2023-02-19T23:10:33.892Z,40.30
2023-02-19T23:13:00.676Z,39.20
2023-02-19T23:15:27.464Z,36.83
2023-02-19T23:17:54.283Z,35.25
2023-02-19T23:20:21.157Z,38.20
2023-02-19T23:22:48.056Z,39.03
2023-02-19T23:25:14.843Z,39.33
2023-02-19T23:27:41.700Z,39.60
2023-02-19T23:30:08.941Z,37.53
2023-02-19T23:32:35.760Z,39.85
2023-02-19T23:35:02.822Z,36.05
2023-02-19T23:37:30.444Z,40.42
2023-02-19T23:39:57.297Z,41.60
2023-02-19T23:42:24.051Z,42.67
2023-02-19T23:44:50.887Z,38.45
2023-02-19T23:47:18.282Z,40.88
2023-02-19T23:49:45.080Z,38.45
2023-02-19T23:52:11.823Z,41.60
2023-02-19T23:54:39.464Z,43.15
2023-02-19T23:57:06.315Z,43.50
2023-02-19T23:59:33.102Z,39.10
